Time;durP1;ratioP1;P1;durP2;ratioP2;P2;SDS_P1;SDS_P2;PMS_P1;PMS_P2;Temp;Humidity;BMP_temperature;BMP_pressure;BME280_temperature;BME280_humidity;BME280_pressure;Samples;Min_cycle;Max_cycle;Signal;HPM_P1;HPM_P2
2022/01/04 00:00:45;;;;;;;17.33;14.40;;;;;;;;;;2063364;28;20205;-61
2022/01/04 00:01:45;;;;;;;19.75;14.95;;;;;;;;;;2068711;28;20573;-59
2022/01/04 00:02:46;;;;;;;20.88;16.33;;;;;;;;;;2072479;28;20179;-60
2022/01/04 00:03:46;;;;;;;19.42;16.70;;;;;;;;;;2072270;28;20204;-64
2022/01/04 00:04:46;;;;;;;21.17;16.92;;;;;;;;;;2072550;28;20181;-59
2022/01/04 00:05:46;;;;;;;21.73;16.08;;;;;;;;;;2072260;28;20268;-58
2022/01/04 00:06:47;;;;;;;21.20;15.23;;;;;;;;;;2072135;28;20185;-59
2022/01/04 00:07:47;;;;;;;19.20;14.95;;;;;;;;;;2072291;28;20173;-60
2022/01/04 00:08:47;;;;;;;21.02;15.27;;;;;;;;;;2073014;28;20173;-60
2022/01/04 00:09:51;;;;;;;18.08;15.00;;;;;;;;;;2074719;28;20303;-60
2022/01/04 00:10:54;;;;;;;21.48;15.70;;;;;;;;;;2074197;28;20185;-60
2022/01/04 00:14:14;;;;;;;23.77;16.65;;;;;;;;;;2074088;28;20648;-58
2022/01/04 00:15:14;;;;;;;19.58;15.73;;;;;;;;;;2081322;28;20180;-58
2022/01/04 00:16:14;;;;;;;22.65;16.02;;;;;;;;;;2081364;28;20188;-58
2022/01/04 00:17:15;;;;;;;22.10;15.82;;;;;;;;;;2074424;28;20212;-58
2022/01/04 00:18:16;;;;;;;22.73;16.08;;;;;;;;;;2073814;28;20709;-59
2022/01/04 00:19:17;;;;;;;20.40;15.70;;;;;;;;;;2074189;28;20173;-59
2022/01/04 00:20:17;;;;;;;23.00;16.45;;;;;;;;;;2074185;28;20212;-59
2022/01/04 00:21:17;;;;;;;23.42;16.52;;;;;;;;;;2074625;28;20193;-59
2022/01/04 00:22:18;;;;;;;21.90;15.55;;;;;;;;;;2073886;28;20197;-59
2022/01/04 00:23:18;;;;;;;21.33;16.05;;;;;;;;;;2073165;28;20271;-59
2022/01/04 00:24:18;;;;;;;22.08;15.55;;;;;;;;;;2074003;28;20339;-61
2022/01/04 00:25:19;;;;;;;22.05;16.10;;;;;;;;;;2074428;28;20569;-59
2022/01/04 00:26:19;;;;;;;22.23;15.82;;;;;;;;;;2074197;28;20177;-56
2022/01/04 00:27:19;;;;;;;19.75;15.45;;;;;;;;;;2073169;28;20254;-60
2022/01/04 00:28:20;;;;;;;20.40;15.00;;;;;;;;;;2073756;28;20176;-56
2022/01/04 00:29:20;;;;;;;19.67;15.55;;;;;;;;;;2073159;28;20191;-60
2022/01/04 00:30:20;;;;;;;20.70;14.95;;;;;;;;;;2073675;28;20192;-59
2022/01/04 00:31:21;;;;;;;21.67;16.52;;;;;;;;;;2069131;28;20184;-58
2022/01/04 00:32:21;;;;;;;21.13;16.98;;;;;;;;;;2074853;28;20176;-57
2022/01/04 00:33:21;;;;;;;21.75;16.35;;;;;;;;;;2074216;28;20181;-60
2022/01/04 00:34:21;;;;;;;19.70;15.57;;;;;;;;;;2074564;28;20626;-57
2022/01/04 00:35:22;;;;;;;22.63;15.75;;;;;;;;;;2068419;28;20181;-60
2022/01/04 00:36:22;;;;;;;23.25;16.77;;;;;;;;;;2074753;28;20663;-60
2022/01/04 00:37:22;;;;;;;22.00;15.70;;;;;;;;;;2074380;28;20528;-60
2022/01/04 00:38:22;;;;;;;17.85;15.63;;;;;;;;;;2074325;28;20185;-60
2022/01/04 00:39:23;;;;;;;24.27;16.98;;;;;;;;;;2068757;28;20176;-61
2022/01/04 00:40:24;;;;;;;17.88;14.48;;;;;;;;;;2074481;28;20256;-59
2022/01/04 00:41:24;;;;;;;20.08;16.85;;;;;;;;;;2075063;28;20592;-60
2022/01/04 00:42:25;;;;;;;21.15;17.55;;;;;;;;;;2072823;28;20169;-61
2022/01/04 00:43:25;;;;;;;18.77;15.80;;;;;;;;;;2068683;28;20208;-60
2022/01/04 00:44:25;;;;;;;18.42;14.98;;;;;;;;;;2073745;28;20181;-61
2022/01/04 00:45:26;;;;;;;19.70;15.23;;;;;;;;;;2073838;28;20177;-61
2022/01/04 00:46:27;;;;;;;25.02;16.40;;;;;;;;;;2074209;28;20185;-60
2022/01/04 00:47:40;;;;;;;21.08;15.93;;;;;;;;;;2074860;28;20169;-61
2022/01/04 00:49:59;;;;;;;21.55;15.13;;;;;;;;;;2077498;28;20180;-59
2022/01/04 00:51:00;;;;;;;22.02;17.02;;;;;;;;;;2073287;28;20665;-59
2022/01/04 00:52:01;;;;;;;18.13;15.88;;;;;;;;;;2074627;28;20676;-59
2022/01/04 00:53:02;;;;;;;19.80;15.25;;;;;;;;;;2075559;28;20271;-60
2022/01/04 00:54:02;;;;;;;18.52;14.77;;;;;;;;;;2072843;28;20177;-61
2022/01/04 00:55:03;;;;;;;20.20;15.45;;;;;;;;;;2075243;28;20204;-60
2022/01/04 00:56:03;;;;;;;23.20;16.67;;;;;;;;;;2073063;28;20169;-59
2022/01/04 00:57:04;;;;;;;22.48;15.85;;;;;;;;;;2072994;28;20177;-60
2022/01/04 00:58:04;;;;;;;18.90;14.77;;;;;;;;;;2072291;28;20255;-61
2022/01/04 00:59:04;;;;;;;18.48;16.45;;;;;;;;;;2081626;28;20255;-58
2022/01/04 01:00:05;;;;;;;22.92;16.50;;;;;;;;;;2080755;28;20291;-57
2022/01/04 01:01:05;;;;;;;19.23;15.10;;;;;;;;;;2073353;28;20181;-59
2022/01/04 01:02:06;;;;;;;19.45;15.98;;;;;;;;;;2072799;28;20193;-57
2022/01/04 01:03:06;;;;;;;19.60;15.80;;;;;;;;;;2074684;28;20212;-59
2022/01/04 01:04:07;;;;;;;20.38;15.35;;;;;;;;;;2074056;28;20185;-59
2022/01/04 01:05:08;;;;;;;21.98;16.40;;;;;;;;;;2074681;28;20201;-58
2022/01/04 01:06:09;;;;;;;17.60;15.65;;;;;;;;;;2069710;28;20228;-59
2022/01/04 01:07:10;;;;;;;23.80;15.98;;;;;;;;;;2074714;28;20188;-59
2022/01/04 01:08:10;;;;;;;20.02;15.80;;;;;;;;;;2070058;28;20213;-59
2022/01/04 01:09:10;;;;;;;22.85;15.38;;;;;;;;;;2070475;28;20206;-57
2022/01/04 01:11:17;;;;;;;22.23;15.63;;;;;;;;;;2073942;28;20173;-55
2022/01/04 01:12:17;;;;;;;21.27;15.43;;;;;;;;;;2068960;28;20177;-58
2022/01/04 01:13:18;;;;;;;22.05;15.65;;;;;;;;;;2074553;28;20191;-58
2022/01/04 01:14:18;;;;;;;20.95;16.02;;;;;;;;;;2073670;28;20203;-59
2022/01/04 01:15:19;;;;;;;22.25;15.25;;;;;;;;;;2073949;28;20200;-57
2022/01/04 01:16:19;;;;;;;21.90;15.13;;;;;;;;;;2074478;28;20224;-59
2022/01/04 01:17:20;;;;;;;15.95;13.98;;;;;;;;;;2080992;28;20176;-57
2022/01/04 01:18:20;;;;;;;18.10;15.27;;;;;;;;;;2073495;28;20185;-56
2022/01/04 01:19:21;;;;;;;19.45;15.05;;;;;;;;;;2072790;28;20696;-58
2022/01/04 01:20:21;;;;;;;20.45;15.52;;;;;;;;;;2072582;28;20750;-59
2022/01/04 01:21:21;;;;;;;23.27;15.02;;;;;;;;;;2073455;28;20177;-60
2022/01/04 01:22:22;;;;;;;21.20;16.17;;;;;;;;;;2073574;28;20517;-59
2022/01/04 01:23:22;;;;;;;19.38;15.63;;;;;;;;;;2072294;28;20180;-57
2022/01/04 01:24:22;;;;;;;20.88;15.13;;;;;;;;;;2070959;28;20220;-57
2022/01/04 01:25:23;;;;;;;18.65;15.98;;;;;;;;;;2073551;28;20556;-59
2022/01/04 01:26:23;;;;;;;17.23;15.27;;;;;;;;;;2067927;28;20708;-56
2022/01/04 01:27:23;;;;;;;17.50;15.23;;;;;;;;;;2072676;28;20173;-56
2022/01/04 01:28:24;;;;;;;16.63;14.77;;;;;;;;;;2073461;28;20169;-59
2022/01/04 01:29:24;;;;;;;17.73;15.38;;;;;;;;;;2072909;28;20630;-58
2022/01/04 01:30:26;;;;;;;19.67;15.05;;;;;;;;;;2072581;28;20181;-59
2022/01/04 01:31:27;;;;;;;21.77;15.00;;;;;;;;;;2072284;28;20262;-54
2022/01/04 01:32:27;;;;;;;18.92;15.18;;;;;;;;;;2074346;28;20184;-59
2022/01/04 01:33:28;;;;;;;21.23;15.35;;;;;;;;;;2071844;28;20180;-58
2022/01/04 01:34:28;;;;;;;17.95;15.82;;;;;;;;;;2072228;28;20244;-58
2022/01/04 01:35:30;;;;;;;21.65;15.95;;;;;;;;;;2073290;28;20368;-59
2022/01/04 01:36:31;;;;;;;15.75;13.98;;;;;;;;;;2074475;28;20161;-60
2022/01/04 01:37:31;;;;;;;19.67;15.35;;;;;;;;;;2072765;28;20697;-60
2022/01/04 01:38:31;;;;;;;18.88;15.05;;;;;;;;;;2069427;28;20785;-59
2022/01/04 01:39:32;;;;;;;22.17;15.60;;;;;;;;;;2071812;28;20230;-60
2022/01/04 01:40:32;;;;;;;21.60;16.40;;;;;;;;;;2072290;28;20204;-59
2022/01/04 01:41:32;;;;;;;18.52;15.40;;;;;;;;;;2074107;28;20173;-60
2022/01/04 01:42:32;;;;;;;19.38;15.82;;;;;;;;;;2073112;28;20291;-60
2022/01/04 01:43:33;;;;;;;21.25;15.68;;;;;;;;;;2073834;28;20188;-60
2022/01/04 01:44:34;;;;;;;19.77;14.90;;;;;;;;;;2073333;28;20177;-59
2022/01/04 01:45:35;;;;;;;21.70;15.00;;;;;;;;;;2073922;28;20191;-61
2022/01/04 01:46:36;;;;;;;20.48;15.63;;;;;;;;;;2073929;28;20169;-62
2022/01/04 01:47:38;;;;;;;17.95;16.05;;;;;;;;;;2074281;28;20260;-62
2022/01/04 01:48:38;;;;;;;21.10;14.98;;;;;;;;;;2073577;28;20180;-61
2022/01/04 01:49:39;;;;;;;19.60;16.27;;;;;;;;;;2073549;28;20176;-61
2022/01/04 01:50:39;;;;;;;19.80;15.38;;;;;;;;;;2073714;28;20262;-61
2022/01/04 01:51:40;;;;;;;21.90;15.98;;;;;;;;;;2074076;28;20188;-60
2022/01/04 01:52:41;;;;;;;19.67;15.35;;;;;;;;;;2073676;28;20181;-59
2022/01/04 01:53:42;;;;;;;16.70;14.98;;;;;;;;;;2066059;28;20173;-60
2022/01/04 01:54:42;;;;;;;19.15;15.25;;;;;;;;;;2072323;28;20645;-58
2022/01/04 01:55:43;;;;;;;18.90;14.93;;;;;;;;;;2073511;28;20176;-61
2022/01/04 01:56:43;;;;;;;18.15;14.88;;;;;;;;;;2074105;28;20165;-59
2022/01/04 01:57:44;;;;;;;18.02;15.98;;;;;;;;;;2073748;28;20168;-61
2022/01/04 01:58:44;;;;;;;20.00;15.65;;;;;;;;;;2073970;28;20295;-60
2022/01/04 01:59:44;;;;;;;19.92;15.90;;;;;;;;;;2074237;28;20260;-60
2022/01/04 02:00:44;;;;;;;20.83;15.25;;;;;;;;;;2073960;28;20216;-60
2022/01/04 02:01:45;;;;;;;25.05;14.73;;;;;;;;;;2074434;28;20250;-61
2022/01/04 02:02:45;;;;;;;21.13;16.17;;;;;;;;;;2072662;28;20235;-60
2022/01/04 02:03:46;;;;;;;16.40;14.27;;;;;;;;;;2073674;28;20311;-61
2022/01/04 02:04:46;;;;;;;16.67;13.88;;;;;;;;;;2073875;28;20631;-60
2022/01/04 02:05:47;;;;;;;19.48;14.48;;;;;;;;;;2074390;28;20536;-60
2022/01/04 02:06:47;;;;;;;18.83;14.80;;;;;;;;;;2074082;28;20223;-59
2022/01/04 02:07:47;;;;;;;16.60;14.90;;;;;;;;;;2072450;28;20634;-61
2022/01/04 02:08:48;;;;;;;16.63;14.48;;;;;;;;;;2073526;28;20716;-60
2022/01/04 02:09:59;;;;;;;18.48;14.98;;;;;;;;;;2073076;28;20224;-59
2022/01/04 02:10:59;;;;;;;17.90;14.30;;;;;;;;;;2068169;28;20178;-59
2022/01/04 02:12:00;;;;;;;19.85;14.75;;;;;;;;;;2072050;28;20641;-60
2022/01/04 02:13:01;;;;;;;17.33;14.15;;;;;;;;;;2069091;28;20545;-58
2022/01/04 02:14:01;;;;;;;20.08;14.70;;;;;;;;;;2072204;28;20169;-58
2022/01/04 02:15:03;;;;;;;18.55;14.18;;;;;;;;;;2073025;28;20248;-57
2022/01/04 02:16:03;;;;;;;15.95;13.85;;;;;;;;;;2073194;28;20176;-59
2022/01/04 02:17:04;;;;;;;16.15;14.45;;;;;;;;;;2072934;28;20567;-62
2022/01/04 02:18:05;;;;;;;17.83;15.85;;;;;;;;;;2073180;28;20185;-60
2022/01/04 02:19:07;;;;;;;16.48;14.35;;;;;;;;;;2069111;28;20177;-59
2022/01/04 02:20:07;;;;;;;16.70;14.43;;;;;;;;;;2072569;28;20556;-62
2022/01/04 02:21:08;;;;;;;15.55;13.90;;;;;;;;;;2072542;28;20177;-59
2022/01/04 02:22:08;;;;;;;18.63;13.80;;;;;;;;;;2073323;28;20938;-60
2022/01/04 02:23:08;;;;;;;23.95;15.05;;;;;;;;;;2072794;28;20720;-61
2022/01/04 02:24:08;;;;;;;19.33;13.85;;;;;;;;;;2072773;28;20181;-56
2022/01/04 02:25:09;;;;;;;15.88;13.70;;;;;;;;;;2072777;28;20837;-59
2022/01/04 02:26:09;;;;;;;15.98;13.88;;;;;;;;;;2073383;28;20259;-59
2022/01/04 02:27:10;;;;;;;15.23;13.68;;;;;;;;;;2070103;28;20189;-58
2022/01/04 02:28:11;;;;;;;19.48;14.07;;;;;;;;;;2073076;28;20185;-58
2022/01/04 02:29:11;;;;;;;15.90;14.32;;;;;;;;;;2072748;28;20183;-59
2022/01/04 02:30:14;;;;;;;17.85;13.57;;;;;;;;;;2073082;28;20259;-60
2022/01/04 02:31:14;;;;;;;16.77;12.55;;;;;;;;;;2072453;28;20177;-57
2022/01/04 02:32:15;;;;;;;16.55;13.02;;;;;;;;;;2072500;28;20196;-53
2022/01/04 02:33:15;;;;;;;14.95;13.32;;;;;;;;;;2070664;28;20183;-58
2022/01/04 02:34:15;;;;;;;17.27;14.35;;;;;;;;;;2072957;28;20606;-60
2022/01/04 02:35:18;;;;;;;13.82;12.35;;;;;;;;;;2072403;28;20200;-57
2022/01/04 02:36:19;;;;;;;17.00;13.60;;;;;;;;;;2073491;28;20205;-58
2022/01/04 02:37:20;;;;;;;15.00;13.05;;;;;;;;;;2072522;28;20169;-57
2022/01/04 02:38:20;;;;;;;16.42;13.57;;;;;;;;;;2073123;28;20173;-58
2022/01/04 02:39:20;;;;;;;17.38;13.75;;;;;;;;;;2072419;28;20192;-58
2022/01/04 02:40:20;;;;;;;18.25;13.45;;;;;;;;;;2072282;28;20193;-59
2022/01/04 02:41:21;;;;;;;16.17;13.90;;;;;;;;;;2073376;28;20172;-59
2022/01/04 02:42:22;;;;;;;17.45;14.35;;;;;;;;;;2072387;28;20239;-57
2022/01/04 02:43:22;;;;;;;17.73;14.55;;;;;;;;;;2072952;28;20204;-59
2022/01/04 02:44:22;;;;;;;15.82;14.20;;;;;;;;;;2072693;28;20181;-59
2022/01/04 02:45:23;;;;;;;16.63;13.80;;;;;;;;;;2071756;28;20184;-58
2022/01/04 02:46:23;;;;;;;16.17;14.38;;;;;;;;;;2072093;28;20267;-60
2022/01/04 02:47:23;;;;;;;20.73;15.50;;;;;;;;;;2072829;28;20180;-59
2022/01/04 02:48:24;;;;;;;17.02;15.23;;;;;;;;;;2071312;28;20173;-59
2022/01/04 02:49:24;;;;;;;16.60;14.52;;;;;;;;;;2072456;28;20201;-60
2022/01/04 02:50:25;;;;;;;17.98;14.82;;;;;;;;;;2072228;28;20212;-58
2022/01/04 02:51:25;;;;;;;17.65;14.45;;;;;;;;;;2073052;28;20196;-59
2022/01/04 02:52:27;;;;;;;18.20;15.30;;;;;;;;;;2070432;28;20191;-58
2022/01/04 02:53:27;;;;;;;21.73;15.10;;;;;;;;;;2073470;28;20172;-59
2022/01/04 02:54:27;;;;;;;18.23;13.98;;;;;;;;;;2072493;28;20621;-60
2022/01/04 02:55:27;;;;;;;18.08;14.68;;;;;;;;;;2072840;28;20185;-58
2022/01/04 02:56:28;;;;;;;19.88;14.50;;;;;;;;;;2071586;28;20260;-59
2022/01/04 02:57:28;;;;;;;21.33;15.23;;;;;;;;;;2072630;28;20185;-58
2022/01/04 02:58:29;;;;;;;15.35;13.15;;;;;;;;;;2079916;28;20558;-60
2022/01/04 02:59:29;;;;;;;15.80;14.13;;;;;;;;;;2080695;28;20230;-58
2022/01/04 03:00:29;;;;;;;15.90;12.85;;;;;;;;;;2099301;22;20271;-63
2022/01/04 03:01:30;;;;;;;13.88;12.40;;;;;;;;;;2092515;28;20186;-64
2022/01/04 03:02:30;;;;;;;14.88;13.30;;;;;;;;;;2097337;28;20189;-65
2022/01/04 03:03:31;;;;;;;15.00;13.43;;;;;;;;;;2097037;28;20175;-63
2022/01/04 03:04:32;;;;;;;14.23;12.77;;;;;;;;;;2087820;28;20682;-63
2022/01/04 03:05:32;;;;;;;18.73;12.93;;;;;;;;;;2088055;28;20172;-62
2022/01/04 03:06:32;;;;;;;16.00;12.80;;;;;;;;;;2097291;28;20839;-65
2022/01/04 03:07:33;;;;;;;16.55;12.75;;;;;;;;;;2091497;28;20234;-62
2022/01/04 03:08:33;;;;;;;14.18;12.20;;;;;;;;;;2092319;28;20167;-64
2022/01/04 03:09:33;;;;;;;14.25;12.27;;;;;;;;;;2096694;28;20253;-62
2022/01/04 03:10:35;;;;;;;13.52;12.10;;;;;;;;;;2096762;28;20266;-64
2022/01/04 03:11:35;;;;;;;13.52;12.13;;;;;;;;;;2092935;28;20209;-65
2022/01/04 03:12:38;;;;;;;15.07;11.70;;;;;;;;;;2096666;28;20175;-62
2022/01/04 03:13:39;;;;;;;14.50;12.40;;;;;;;;;;2097381;28;20175;-63
2022/01/04 03:14:39;;;;;;;13.70;12.15;;;;;;;;;;2092569;28;20163;-63
2022/01/04 03:15:39;;;;;;;15.85;12.98;;;;;;;;;;2092887;28;20175;-62
2022/01/04 03:16:40;;;;;;;13.45;12.05;;;;;;;;;;2094529;28;20180;-64
2022/01/04 03:17:41;;;;;;;17.00;12.07;;;;;;;;;;2096559;28;20526;-64
2022/01/04 03:19:02;;;;;;;13.10;11.15;;;;;;;;;;2095607;28;20175;-64
2022/01/04 03:20:02;;;;;;;15.45;12.43;;;;;;;;;;2092854;28;20294;-64
2022/01/04 03:21:02;;;;;;;13.90;12.27;;;;;;;;;;2094036;28;20199;-62
2022/01/04 03:22:02;;;;;;;14.23;12.73;;;;;;;;;;2092586;28;20176;-63
2022/01/04 03:23:03;;;;;;;14.43;12.20;;;;;;;;;;2088325;28;20255;-63
2022/01/04 03:24:04;;;;;;;14.80;10.98;;;;;;;;;;2086916;28;20214;-62
2022/01/04 03:25:05;;;;;;;14.55;11.45;;;;;;;;;;2096634;28;20175;-63
2022/01/04 03:26:05;;;;;;;12.82;11.55;;;;;;;;;;2086902;28;20894;-63
2022/01/04 03:27:06;;;;;;;13.23;11.80;;;;;;;;;;2086646;28;20237;-64
2022/01/04 03:28:07;;;;;;;12.30;11.10;;;;;;;;;;2096838;28;20179;-64
2022/01/04 03:29:09;;;;;;;12.40;11.10;;;;;;;;;;2096638;28;20624;-64
2022/01/04 03:30:09;;;;;;;13.93;11.75;;;;;;;;;;2094082;28;20218;-63
2022/01/04 03:31:11;;;;;;;13.43;11.90;;;;;;;;;;2096885;28;20277;-63
2022/01/04 03:32:11;;;;;;;15.95;11.68;;;;;;;;;;2096601;28;20170;-63
2022/01/04 03:33:12;;;;;;;15.65;13.55;;;;;;;;;;2097420;28;20649;-62
2022/01/04 03:34:12;;;;;;;14.68;11.63;;;;;;;;;;2089653;28;20317;-61
2022/01/04 03:35:12;;;;;;;13.57;12.20;;;;;;;;;;2096534;28;20186;-63
2022/01/04 03:36:14;;;;;;;18.40;12.82;;;;;;;;;;2089715;28;20168;-62
2022/01/04 03:37:15;;;;;;;13.25;11.50;;;;;;;;;;2087695;28;20568;-63
2022/01/04 03:38:15;;;;;;;14.88;13.10;;;;;;;;;;2080431;28;20204;-65
2022/01/04 03:39:16;;;;;;;14.73;13.02;;;;;;;;;;2089659;28;20786;-64
2022/01/04 03:40:17;;;;;;;15.80;12.88;;;;;;;;;;2090651;28;20183;-59
2022/01/04 03:41:17;;;;;;;15.38;13.18;;;;;;;;;;2096051;28;20699;-64
2022/01/04 03:42:17;;;;;;;16.10;13.45;;;;;;;;;;2091092;28;20200;-64
2022/01/04 03:43:18;;;;;;;16.75;13.82;;;;;;;;;;2096399;28;20171;-63
2022/01/04 03:44:21;;;;;;;16.13;14.43;;;;;;;;;;2090061;28;20180;-63
2022/01/04 03:45:21;;;;;;;15.85;14.23;;;;;;;;;;2089766;28;20171;-63
2022/01/04 03:46:22;;;;;;;15.95;14.05;;;;;;;;;;2090789;28;20679;-63
2022/01/04 03:47:22;;;;;;;16.33;14.60;;;;;;;;;;2097053;28;20194;-62
2022/01/04 03:48:23;;;;;;;16.55;14.88;;;;;;;;;;2095415;28;20224;-63
2022/01/04 03:49:23;;;;;;;18.45;14.65;;;;;;;;;;2087387;28;20180;-63
2022/01/04 03:50:24;;;;;;;20.58;14.80;;;;;;;;;;2087552;28;20206;-63
2022/01/04 03:51:24;;;;;;;17.00;15.15;;;;;;;;;;2096537;28;20515;-62
2022/01/04 03:52:25;;;;;;;15.77;14.18;;;;;;;;;;2097050;28;20181;-62
2022/01/04 03:53:25;;;;;;;18.17;16.02;;;;;;;;;;2097432;28;20208;-65
2022/01/04 03:54:25;;;;;;;17.17;15.35;;;;;;;;;;2097494;28;20178;-64
2022/01/04 03:55:26;;;;;;;18.88;15.90;;;;;;;;;;2096281;28;20178;-62
2022/01/04 03:56:26;;;;;;;18.80;16.80;;;;;;;;;;2097582;28;20548;-62
2022/01/04 03:57:26;;;;;;;24.50;16.13;;;;;;;;;;2096773;28;20179;-63
2022/01/04 03:58:27;;;;;;;18.75;16.67;;;;;;;;;;2088222;28;20171;-63
2022/01/04 03:59:27;;;;;;;20.08;17.10;;;;;;;;;;2085061;28;20265;-64
2022/01/04 04:00:27;;;;;;;20.48;16.42;;;;;;;;;;2087609;28;20261;-63
2022/01/04 04:01:27;;;;;;;20.10;16.30;;;;;;;;;;2086724;28;21415;-62
2022/01/04 04:02:28;;;;;;;19.48;17.58;;;;;;;;;;2087585;28;20188;-63
2022/01/04 04:03:28;;;;;;;19.50;17.40;;;;;;;;;;2084894;28;20179;-61
2022/01/04 04:04:28;;;;;;;19.35;17.35;;;;;;;;;;2088627;28;20183;-62
2022/01/04 04:05:29;;;;;;;21.48;17.95;;;;;;;;;;2088277;28;20180;-62
2022/01/04 04:06:29;;;;;;;22.42;18.00;;;;;;;;;;2080555;28;20198;-62
2022/01/04 04:07:29;;;;;;;23.13;18.65;;;;;;;;;;2086934;28;20175;-63
2022/01/04 04:08:30;;;;;;;21.48;17.42;;;;;;;;;;2092351;28;20171;-61
2022/01/04 04:09:34;;;;;;;19.88;17.77;;;;;;;;;;2096756;28;20239;-63
2022/01/04 04:10:35;;;;;;;19.42;17.45;;;;;;;;;;2097287;28;20167;-62
2022/01/04 04:11:35;;;;;;;23.27;17.40;;;;;;;;;;2096965;28;20680;-64
2022/01/04 04:12:35;;;;;;;22.42;18.65;;;;;;;;;;2096033;28;20723;-62
2022/01/04 04:13:36;;;;;;;24.52;19.45;;;;;;;;;;2096332;28;20167;-63
2022/01/04 04:14:36;;;;;;;20.63;18.45;;;;;;;;;;2087963;28;20181;-63
2022/01/04 04:15:40;;;;;;;20.67;18.17;;;;;;;;;;2079641;28;20676;-63
2022/01/04 04:16:40;;;;;;;20.00;17.80;;;;;;;;;;2088601;28;20168;-62
2022/01/04 04:17:40;;;;;;;22.30;19.02;;;;;;;;;;2096329;28;20170;-62
2022/01/04 04:18:40;;;;;;;23.52;18.50;;;;;;;;;;2084694;28;20175;-63
2022/01/04 04:19:41;;;;;;;21.77;18.80;;;;;;;;;;2086466;28;20175;-61
2022/01/04 04:20:42;;;;;;;20.60;18.48;;;;;;;;;;2093280;28;20171;-62
2022/01/04 04:21:42;;;;;;;21.50;18.45;;;;;;;;;;2097176;28;20664;-61
2022/01/04 04:22:42;;;;;;;24.35;19.25;;;;;;;;;;2096083;28;20175;-62
2022/01/04 04:23:43;;;;;;;21.65;18.25;;;;;;;;;;2093938;28;20663;-62
2022/01/04 04:24:44;;;;;;;19.98;17.83;;;;;;;;;;2096247;28;20178;-63
2022/01/04 04:25:44;;;;;;;20.10;17.45;;;;;;;;;;2097230;28;20175;-62
2022/01/04 04:26:44;;;;;;;24.95;19.15;;;;;;;;;;2087542;28;20573;-63
2022/01/04 04:27:45;;;;;;;20.60;18.02;;;;;;;;;;2086204;28;20168;-62
2022/01/04 04:28:45;;;;;;;20.17;17.45;;;;;;;;;;2088268;28;20176;-63
2022/01/04 04:29:45;;;;;;;23.73;19.08;;;;;;;;;;2078920;28;20164;-63
2022/01/04 04:30:45;;;;;;;20.60;18.40;;;;;;;;;;2087726;28;20192;-64
2022/01/04 04:31:45;;;;;;;24.75;18.27;;;;;;;;;;2096547;28;20171;-63
2022/01/04 04:32:47;;;;;;;21.48;19.33;;;;;;;;;;2096668;28;20182;-63
2022/01/04 04:33:47;;;;;;;20.10;17.63;;;;;;;;;;2094554;28;20182;-63
2022/01/04 04:34:47;;;;;;;20.10;17.88;;;;;;;;;;2094057;28;20186;-63
2022/01/04 04:35:48;;;;;;;20.48;18.13;;;;;;;;;;2097074;28;20244;-63
2022/01/04 04:36:48;;;;;;;23.58;17.58;;;;;;;;;;2096732;28;20198;-63
2022/01/04 04:37:48;;;;;;;18.30;16.38;;;;;;;;;;2088627;28;20171;-63
2022/01/04 04:38:49;;;;;;;19.88;17.80;;;;;;;;;;2075360;28;20720;-63
2022/01/04 04:39:49;;;;;;;20.83;17.77;;;;;;;;;;2080886;28;20552;-62
2022/01/04 04:40:49;;;;;;;19.77;16.58;;;;;;;;;;2088868;28;20191;-63
2022/01/04 04:41:49;;;;;;;20.55;16.40;;;;;;;;;;2080595;28;20685;-63
2022/01/04 04:42:50;;;;;;;21.83;16.42;;;;;;;;;;2085516;28;20329;-63
2022/01/04 04:43:54;;;;;;;20.33;16.48;;;;;;;;;;2083269;28;20601;-61
2022/01/04 04:44:54;;;;;;;21.52;16.60;;;;;;;;;;2089585;28;20778;-65
2022/01/04 04:45:54;;;;;;;19.50;17.33;;;;;;;;;;2089772;28;20218;-63
2022/01/04 04:46:54;;;;;;;18.48;16.70;;;;;;;;;;2089438;28;20180;-63
2022/01/04 04:47:55;;;;;;;17.60;15.70;;;;;;;;;;2089694;28;20320;-64
2022/01/04 04:48:55;;;;;;;19.00;16.52;;;;;;;;;;2095210;28;20206;-62
2022/01/04 04:49:55;;;;;;;18.83;16.83;;;;;;;;;;2097581;28;20236;-62
2022/01/04 04:50:56;;;;;;;18.13;16.20;;;;;;;;;;2095292;28;20195;-62
2022/01/04 04:51:59;;;;;;;18.98;16.63;;;;;;;;;;2096221;28;20651;-62
2022/01/04 04:52:59;;;;;;;21.05;16.92;;;;;;;;;;2097629;28;20197;-63
2022/01/04 04:53:59;;;;;;;20.88;17.77;;;;;;;;;;2092207;28;20687;-61
2022/01/04 04:55:00;;;;;;;22.52;18.63;;;;;;;;;;2090001;28;20646;-62
2022/01/04 04:56:00;;;;;;;23.55;17.92;;;;;;;;;;2098575;28;20163;-64
2022/01/04 04:57:00;;;;;;;20.20;17.00;;;;;;;;;;2096032;28;20171;-62
2022/01/04 04:58:01;;;;;;;18.75;16.50;;;;;;;;;;2098141;28;20187;-66
2022/01/04 04:59:01;;;;;;;19.90;17.48;;;;;;;;;;2097727;28;20182;-62
2022/01/04 05:00:02;;;;;;;19.42;17.33;;;;;;;;;;2095800;28;20262;-63
2022/01/04 05:01:03;;;;;;;19.75;17.65;;;;;;;;;;2096933;28;20237;-64
2022/01/04 05:02:04;;;;;;;20.80;17.60;;;;;;;;;;2098572;28;20175;-64
2022/01/04 05:03:05;;;;;;;20.58;17.02;;;;;;;;;;2097415;28;20655;-63
2022/01/04 05:04:05;;;;;;;20.13;16.98;;;;;;;;;;2092215;28;20164;-63
2022/01/04 05:05:06;;;;;;;20.33;15.15;;;;;;;;;;2097682;28;20171;-62
2022/01/04 05:06:07;;;;;;;20.08;17.65;;;;;;;;;;2098363;28;20232;-62
2022/01/04 05:07:08;;;;;;;18.85;16.98;;;;;;;;;;2092732;28;20195;-63
2022/01/04 05:08:08;;;;;;;19.77;16.88;;;;;;;;;;2097695;28;20175;-62
2022/01/04 05:09:08;;;;;;;21.10;17.42;;;;;;;;;;2095809;28;20191;-64
2022/01/04 05:10:09;;;;;;;21.63;17.10;;;;;;;;;;2098190;28;20190;-63
2022/01/04 05:11:09;;;;;;;21.17;17.88;;;;;;;;;;2090663;28;20195;-63
2022/01/04 05:12:09;;;;;;;21.15;17.15;;;;;;;;;;2094415;28;20556;-63
2022/01/04 05:13:10;;;;;;;20.98;17.73;;;;;;;;;;2091552;28;20179;-64
2022/01/04 05:14:10;;;;;;;18.90;16.88;;;;;;;;;;2098194;28;20276;-61
2022/01/04 05:15:10;;;;;;;19.13;17.02;;;;;;;;;;2090755;28;20194;-64
2022/01/04 05:16:11;;;;;;;20.73;17.50;;;;;;;;;;2097905;28;20172;-64
2022/01/04 05:17:11;;;;;;;19.10;17.02;;;;;;;;;;2099164;28;20246;-64
2022/01/04 05:18:12;;;;;;;22.48;18.45;;;;;;;;;;2089140;28;20187;-64
2022/01/04 05:19:12;;;;;;;21.98;17.40;;;;;;;;;;2089387;28;20171;-64
2022/01/04 05:20:12;;;;;;;23.30;17.42;;;;;;;;;;2089579;28;20176;-65
2022/01/04 05:21:12;;;;;;;19.88;17.63;;;;;;;;;;2092583;28;20196;-62
2022/01/04 05:22:13;;;;;;;22.00;18.02;;;;;;;;;;2098935;28;20187;-63
2022/01/04 05:23:13;;;;;;;20.65;17.75;;;;;;;;;;2080933;28;20226;-64
2022/01/04 05:24:13;;;;;;;19.63;17.60;;;;;;;;;;2081530;28;20711;-64
2022/01/04 05:25:14;;;;;;;20.05;17.40;;;;;;;;;;2091893;28;20194;-64
2022/01/04 05:26:14;;;;;;;21.10;17.33;;;;;;;;;;2098834;28;20181;-64
2022/01/04 05:27:14;;;;;;;20.25;17.35;;;;;;;;;;2098813;28;20195;-66
2022/01/04 05:28:15;;;;;;;19.92;16.92;;;;;;;;;;2098155;28;20762;-63
2022/01/04 05:29:15;;;;;;;20.60;16.92;;;;;;;;;;2097494;28;20194;-62
2022/01/04 05:30:15;;;;;;;21.50;18.83;;;;;;;;;;2098286;28;20198;-62
2022/01/04 05:31:15;;;;;;;21.65;17.38;;;;;;;;;;2091124;28;20245;-63
2022/01/04 05:32:16;;;;;;;20.25;17.63;;;;;;;;;;2098334;28;20742;-63
2022/01/04 05:33:16;;;;;;;20.23;17.17;;;;;;;;;;2091504;28;20312;-62
2022/01/04 05:34:16;;;;;;;20.30;17.15;;;;;;;;;;2096066;28;20240;-62
2022/01/04 05:35:16;;;;;;;22.83;18.67;;;;;;;;;;2097943;28;20724;-62
2022/01/04 05:36:17;;;;;;;21.33;17.42;;;;;;;;;;2100217;28;20534;-63
2022/01/04 05:37:17;;;;;;;19.42;16.63;;;;;;;;;;2100942;28;20171;-61
2022/01/04 05:38:17;;;;;;;23.35;18.45;;;;;;;;;;2104068;28;20178;-64
2022/01/04 05:39:18;;;;;;;19.63;17.50;;;;;;;;;;2102784;28;20164;-62
2022/01/04 05:40:18;;;;;;;20.00;17.50;;;;;;;;;;2103647;28;20194;-65
2022/01/04 05:41:18;;;;;;;20.20;16.63;;;;;;;;;;2098288;28;20199;-65
2022/01/04 05:42:19;;;;;;;19.60;16.48;;;;;;;;;;2098204;28;20589;-60
2022/01/04 05:43:19;;;;;;;20.27;16.90;;;;;;;;;;2097116;28;20181;-63
2022/01/04 05:44:19;;;;;;;19.08;16.73;;;;;;;;;;2089328;28;20176;-61
2022/01/04 05:45:19;;;;;;;21.90;18.15;;;;;;;;;;2088926;28;20278;-62
2022/01/04 05:46:20;;;;;;;21.92;17.92;;;;;;;;;;2097934;28;20203;-64
2022/01/04 05:47:20;;;;;;;23.10;17.42;;;;;;;;;;2097226;28;20185;-62
2022/01/04 05:48:21;;;;;;;21.08;17.40;;;;;;;;;;2098403;28;20210;-59
2022/01/04 05:49:21;;;;;;;23.02;17.65;;;;;;;;;;2102107;28;20186;-61
2022/01/04 05:50:21;;;;;;;19.77;17.67;;;;;;;;;;2098855;28;20210;-63
2022/01/04 05:51:21;;;;;;;19.70;17.03;;;;;;;;;;2101245;28;20236;-60
2022/01/04 05:52:22;;;;;;;23.90;18.35;;;;;;;;;;2100942;28;20181;-60
2022/01/04 05:53:22;;;;;;;22.95;18.17;;;;;;;;;;2092525;28;20228;-63
2022/01/04 05:54:22;;;;;;;21.95;16.73;;;;;;;;;;2092349;28;20228;-64
2022/01/04 05:55:22;;;;;;;22.42;17.92;;;;;;;;;;2093051;28;20229;-61
2022/01/04 05:56:23;;;;;;;20.15;16.45;;;;;;;;;;2084965;28;20203;-63
2022/01/04 05:57:23;;;;;;;21.15;17.73;;;;;;;;;;2086625;28;20712;-62